• Join FlightAware (Why Join?)
  • Login
  • US Flag 
08:14AM EDT


 

Airport Tracker/Info


-or-


 

Live Flight TrackerFlight Track Log ✈ JUS827 ✈ 22-Apr-2013 ✈ KSDF - KYIP

Flight Track Log - Related Links

Times and Time Zones

All times are in EDT time to prevent confusion due to time zone crossing. See the JUS827 flight status page for this flight to view local times or setup timezone preferences in your user account.

Time Position Orientation Groundspeed Altitude Reporting Facility
EDT Latitude Longitude Course Direction KTS MPH feet Rate Location/Type
04:18AM 38.1456 -85.7419 237° Southwest 168 193 1,900  Level FAA TRACON SMA TRACON (SMA)
04:18AM 38.1261 -85.7453 188° South 182 209 2,800 2,520 Climbing FAA TRACON SMA TRACON (SMA)
04:19AM 38.1097 -85.7486 189° South 189 217 3,600 2,100 Climbing FAA TRACON SMA TRACON (SMA)
04:19AM 38.0928 -85.7508 186° South 197 227 4,200 2,040 Climbing FAA TRACON SMA TRACON (SMA)
04:19AM 38.0717 -85.7606 200° South 215 247 5,000 1,980 Climbing FAA TRACON SMA TRACON (SMA)
04:20AM 38.0625 -85.7817 241° Southwest 230 265 5,500 1,620 Climbing FAA TRACON SMA TRACON (SMA)
04:20AM 38.0694 -85.8133 286° West 251 289 6,200 2,160 Climbing FAA TRACON SMA TRACON (SMA)
04:20AM 38.0869 -85.8294 324° Northwest 263 303 7,100 3,300 Climbing FAA TRACON SMA TRACON (SMA)
04:21AM 38.1089 -85.8347 349° North 263 303 8,200 3,360 Climbing FAA TRACON SMA TRACON (SMA)
04:21AM 38.1294 -85.8358 358° North 248 285 9,200 2,520 Climbing FAA TRACON SMA TRACON (SMA)
04:21AM 38.1503 -85.8336 North 242 278 9,900 2,100 Climbing FAA TRACON SMA TRACON (SMA)
04:22AM 38.1781 -85.8289 North 260 299 10,600 1,800 Climbing FAA TRACON SMA TRACON (SMA)
04:22AM 38.2022 -85.8239 North 280 322 11,100 1,320 Climbing FAA TRACON SMA TRACON (SMA)
04:22AM 38.2278 -85.8178 11° North 301 346 11,500 1,260 Climbing FAA TRACON SMA TRACON (SMA)
04:23AM 38.2611 -85.8086 12° North 316 364 12,000 1,500 Climbing FAA TRACON SMA TRACON (SMA)
04:23AM 38.2881 -85.8006 13° North 323 372 12,500 1,620 Climbing FAA TRACON SMA TRACON (SMA)
04:23AM 38.3153 -85.7925 13° North 327 376 13,100 2,160 Climbing FAA TRACON SMA TRACON (SMA)
04:24AM 38.3489 -85.7819 14° North 326 375 14,000 2,400 Climbing FAA TRACON SMA TRACON (SMA)
04:24AM 38.3756 -85.7736 14° North 323 372 14,700 1,920 Climbing FAA TRACON SMA TRACON (SMA)
04:24AM 38.4025 -85.7650 14° North 322 371 15,300 1,800 Climbing FAA TRACON SMA TRACON (SMA)
04:25AM 38.4364 -85.7553 13° North 325 374 15,900 1,320 Climbing FAA TRACON SMA TRACON (SMA)
04:25AM 38.4644 -85.7478 12° North 333 383 16,200 840 Climbing FAA TRACON SMA TRACON (SMA)
04:25AM 38.4933 -85.7408 11° North 340 391 16,500 960 Climbing FAA TRACON SMA TRACON (SMA)
04:26AM 38.5231 -85.7314 14° North 352 405 16,900 1,800 Climbing FAA TRACON SMA TRACON (SMA)
04:26AM 38.5672 -85.7175 14° North 357 411 17,800 1,740 Climbing FAA TRACON SMA TRACON (SMA)
04:26AM 38.5889 -85.7097 16° North 355 409 18,000 1,740 Climbing FAA TRACON SMA TRACON (SMA)
04:27AM 38.6250 -85.6953 17° North 352 405 18,900 2,400 Climbing FAA TRACON SMA TRACON (SMA)
04:27AM 38.6531 -85.6869 13° North 342 394 19,600 1,920 Climbing FAA TRACON SMA TRACON (SMA)
04:27AM 38.6808 -85.6786 13° North 336 387 20,200 1,680 Climbing FAA TRACON SMA TRACON (SMA)
04:28AM 38.7094 -85.6736 North 335 386 20,700 1,320 Climbing FAA TRACON SMA TRACON (SMA)
04:28AM 38.7456 -85.6703 North 336 387 21,100 720 Climbing FAA TRACON SMA TRACON (SMA)
04:28AM 38.7750 -85.6658 North 343 395 21,200 1,020 Climbing FAA TRACON SMA TRACON (SMA)
04:29AM 38.8125 -85.6633 North 351 404 21,800 1,620 Climbing FAA TRACON SMA TRACON (SMA)
04:29AM 38.8422 -85.6603 North 351 404 22,300 1,560 Climbing FAA TRACON SMA TRACON (SMA)
04:29AM 38.8711 -85.6492 17° North 350 403 22,900 1,800 Climbing FAA TRACON SMA TRACON (SMA)
04:30AM 38.9044 -85.6283 26° Northeast 348 400 23,500 1,320 Climbing FAA TRACON SMA TRACON (SMA)
04:30AM 38.9308 -85.6086 30° Northeast 352 405 23,800 600 Climbing FAA TRACON SMA TRACON (SMA)
04:30AM 38.9575 -85.5892 30° Northeast 358 412 23,900 600 Climbing FAA TRACON SMA TRACON (SMA)
04:31AM 38.9911 -85.5619 32° Northeast 367 422 24,200 1,200 Climbing FAA TRACON SMA TRACON (SMA)
04:31AM 39.0186 -85.5414 30° Northeast 372 428 24,700 1,620 Climbing FAA TRACON SMA TRACON (SMA)
04:31AM 39.0461 -85.5228 28° Northeast 368 423 25,300 2,340 Climbing FAA TRACON SMA TRACON (SMA)
04:32AM 39.0800 -85.5003 27° Northeast 359 413 26,300 2,460 Climbing FAA TRACON SMA TRACON (SMA)
04:32AM 39.1069 -85.4858 23° Northeast 348 400 26,900 1,320 Climbing FAA TRACON SMA TRACON (SMA)
04:32AM 39.1336 -85.4711 23° Northeast 341 392 27,200 660 Climbing FAA TRACON SMA TRACON (SMA)
04:33AM 39.1611 -85.4558 23° Northeast 345 397 27,400 300 Climbing FAA TRACON SMA TRACON (SMA)
04:33AM 39.2297 -85.4117 26° Northeast 358 412 27,600 240 Climbing Indianapolis Center
04:34AM 39.3242 -85.3492 27° Northeast 374 430 27,900 180 Climbing Indianapolis Center
04:35AM 39.4239 -85.2872 26° Northeast 386 444 28,000  Climbing Indianapolis Center
04:36AM 39.5267 -85.2275 24° Northeast 396 456 27,900 -60 Descending Indianapolis Center
04:37AM 39.6294 -85.1667 25° Northeast 399 459 27,900  Level Indianapolis Center
04:38AM 39.7325 -85.1111 23° Northeast 398 458 28,000  Climbing Indianapolis Center
04:39AM 39.8339 -85.0514 24° Northeast 395 455 28,000 -60 Level Indianapolis Center
04:40AM 39.9361 -84.9936 23° Northeast 396 456 27,900  Descending Indianapolis Center
04:41AM 40.0375 -84.9342 24° Northeast 395 455 28,000  Climbing Indianapolis Center
04:42AM 40.1389 -84.8778 23° Northeast 391 450 28,000  Level Indianapolis Center
04:43AM 40.2408 -84.8197 23° Northeast 395 455 28,000 -60 Level Indianapolis Center
04:44AM 40.3222 -84.7625 28° Northeast 393 452 27,900 -60 Descending Indianapolis Center
04:45AM 40.4206 -84.6947 28° Northeast 394 453 27,900  Level Indianapolis Center
04:46AM 40.5211 -84.6358 24° Northeast 391 450 27,900  Level Indianapolis Center
04:47AM 40.6222 -84.5728 25° Northeast 396 456 28,000  Climbing Indianapolis Center
04:48AM 40.7233 -84.5089 26° Northeast 400 460 28,000  Level Indianapolis Center
04:49AM 40.8242 -84.4483 24° Northeast 396 456 28,000  Level Indianapolis Center
04:50AM 40.9164 -84.3947 24° Northeast 387 445 28,000  Level Cleveland Center
04:51AM 41.0167 -84.3317 25° Northeast 387 445 28,000 -120 Level Cleveland Center
04:52AM 41.1144 -84.2739 24° Northeast 387 445 27,800 -900 Descending Cleveland Center
04:53AM 41.2186 -84.2133 24° Northeast 387 445 26,200 -1,560 Descending Cleveland Center
04:54AM 41.3247 -84.1558 22° Northeast 398 458 24,700 -1,920 Descending Cleveland Center
04:55AM 41.4244 -84.1003 23° Northeast 398 458 22,400 -2,940 Descending Cleveland Center
04:56AM 41.5244 -84.0281 28° Northeast 398 458 18,900 -3,180 Descending Cleveland Center
04:57AM 41.5694 -83.9917 31° Northeast 394 453 17,800 -1,620 Descending Cleveland Center
04:57AM 41.6081 -83.9519 38° Northeast 386 444 17,300 -1,260 Descending Cleveland Center
04:58AM 41.6572 -83.9128 31° Northeast 336 387 16,400 -2,040 Descending Cleveland Center
04:58AM 41.6872 -83.8839 36° Northeast 358 412 15,300 -2,700 Descending Cleveland Center
04:59AM 41.7364 -83.8444 31° Northeast 337 388 13,700 -2,700 Descending Cleveland Center
04:59AM 41.7664 -83.8156 36° Northeast 340 391 12,600 -2,340 Descending Cleveland Center
05:00AM 41.8153 -83.7789 29° Northeast 332 382 11,400 -2,040 Descending Cleveland Center
05:00AM 41.8453 -83.7553 30° Northeast 334 384 10,600 -1,620 Descending Cleveland Center
05:01AM 41.8936 -83.7353 17° North 301 346 9,800 -1,620 Descending Cleveland Center
05:01AM 41.9211 -83.7200 22° Northeast 308 354 9,000 -2,040 Descending Cleveland Center
05:02AM 41.9675 -83.7028 15° North 273 314 7,800 -2,220 Descending Cleveland Center
05:02AM 41.9950 -83.6900 19° North 290 334 6,800 -2,580 Descending Cleveland Center
05:03AM 42.0350 -83.6725 18° North 220 253 5,200 -2,100 Descending Cleveland Center
05:03AM 42.0542 -83.6650 16° North 257 296 4,700 -1,320 Descending Cleveland Center
05:04AM 42.0919 -83.6500 16° North 208 239 3,900 -1,020 Descending Cleveland Center
05:04AM 42.1089 -83.6397 24° Northeast 223 257 3,700 -900 Descending Cleveland Center
05:05AM 42.1383 -83.6300 14° North 173 199 3,000 -1,020 Descending Cleveland Center
05:05AM 42.1575 -83.6203 21° North 169 194 2,700 -720 Descending FAA TRACON SMA TRACON (SMA)
05:06AM 42.1694 -83.6136 22° Northeast 160 184 2,500 -600 Descending FAA TRACON SMA TRACON (SMA)
05:06AM 42.1811 -83.6058 26° Northeast 153 176 2,300 -780 Descending FAA TRACON SMA TRACON (SMA)
05:06AM 42.1919 -83.5944 38° Northeast 151 174 2,000 -780 Descending FAA TRACON SMA TRACON (SMA)
05:07AM 42.2000 -83.5831 46° Northeast 136 157 1,800 -900 Descending FAA TRACON SMA TRACON (SMA)
05:07AM 42.2072 -83.5733 45° Northeast 126 145 1,400 -780 Descending FAA TRACON SMA TRACON (SMA)
05:07AM 42.2142 -83.5622 50° Northeast 125 144 1,300 -600 Descending FAA TRACON SMA TRACON (SMA)
05:08AM 42.2233 -83.5497 45° Northeast 124 143 1,000 -600 Descending FAA TRACON SMA TRACON (SMA)
05:08AM 42.2250 -83.5472 48° Northeast 122 140 900 -360 Descending FAA TRACON SMA TRACON (SMA)
05:10AM 42.2333 -83.5167 37° Northeast  Level FlightAware Approximate
05:17AM 42.2393 -83.5310 37° Northeast  Level Estimated